sensor_id;sensor_type;location;lat;lon;timestamp;temperature;humidity
42099;DHT22;27758;55.900;8.516;2023-04-15T00:01:58;8.20;99.90
42099;DHT22;27758;55.900;8.516;2023-04-15T00:04:24;8.20;99.90
42099;DHT22;27758;55.900;8.516;2023-04-15T00:06:51;8.10;99.90
42099;DHT22;27758;55.900;8.516;2023-04-15T00:09:20;8.20;99.90
42099;DHT22;27758;55.900;8.516;2023-04-15T00:11:46;8.10;99.90
42099;DHT22;27758;55.900;8.516;2023-04-15T00:27:09;8.10;99.90
42099;DHT22;27758;55.900;8.516;2023-04-15T00:29:37;8.10;99.90
42099;DHT22;27758;55.900;8.516;2023-04-15T00:34:40;8.10;99.90
42099;DHT22;27758;55.900;8.516;2023-04-15T00:37:08;8.00;99.90
42099;DHT22;27758;55.900;8.516;2023-04-15T00:39:37;8.00;99.90
42099;DHT22;27758;55.900;8.516;2023-04-15T00:42:03;8.00;99.90
42099;DHT22;27758;55.900;8.516;2023-04-15T00:44:29;8.00;99.90
42099;DHT22;27758;55.900;8.516;2023-04-15T00:46:56;7.90;99.90
42099;DHT22;27758;55.900;8.516;2023-04-15T00:49:22;7.90;99.90
42099;DHT22;27758;55.900;8.516;2023-04-15T00:51:48;8.00;99.90
42099;DHT22;27758;55.900;8.516;2023-04-15T00:54:17;8.00;99.90
42099;DHT22;27758;55.900;8.516;2023-04-15T00:56:44;8.10;99.90
42099;DHT22;27758;55.900;8.516;2023-04-15T00:59:10;8.00;99.90
42099;DHT22;27758;55.900;8.516;2023-04-15T01:01:37;8.10;99.90
42099;DHT22;27758;55.900;8.516;2023-04-15T01:04:03;8.10;99.90
42099;DHT22;27758;55.900;8.516;2023-04-15T01:06:30;8.10;99.90
42099;DHT22;27758;55.900;8.516;2023-04-15T01:08:57;8.00;99.90
42099;DHT22;27758;55.900;8.516;2023-04-15T01:11:23;8.00;99.90
42099;DHT22;27758;55.900;8.516;2023-04-15T01:13:50;8.00;99.90
42099;DHT22;27758;55.900;8.516;2023-04-15T01:16:17;8.00;99.90
42099;DHT22;27758;55.900;8.516;2023-04-15T01:18:43;8.00;99.90
42099;DHT22;27758;55.900;8.516;2023-04-15T01:21:09;8.00;99.90
42099;DHT22;27758;55.900;8.516;2023-04-15T01:23:36;8.00;99.90
42099;DHT22;27758;55.900;8.516;2023-04-15T01:26:07;8.00;99.90
42099;DHT22;27758;55.900;8.516;2023-04-15T01:28:34;8.10;99.90
42099;DHT22;27758;55.900;8.516;2023-04-15T01:31:10;8.00;99.90
42099;DHT22;27758;55.900;8.516;2023-04-15T01:33:37;8.00;99.90
42099;DHT22;27758;55.900;8.516;2023-04-15T01:36:04;8.10;99.90
42099;DHT22;27758;55.900;8.516;2023-04-15T01:38:31;8.00;99.90
42099;DHT22;27758;55.900;8.516;2023-04-15T01:40:57;8.00;99.90
42099;DHT22;27758;55.900;8.516;2023-04-15T01:43:24;8.00;99.90
42099;DHT22;27758;55.900;8.516;2023-04-15T01:45:50;7.90;99.90
42099;DHT22;27758;55.900;8.516;2023-04-15T01:48:16;7.90;99.90
42099;DHT22;27758;55.900;8.516;2023-04-15T01:50:42;7.90;99.90
42099;DHT22;27758;55.900;8.516;2023-04-15T01:53:08;7.90;99.90
42099;DHT22;27758;55.900;8.516;2023-04-15T01:55:34;7.90;99.90
42099;DHT22;27758;55.900;8.516;2023-04-15T01:58:00;7.90;99.90
42099;DHT22;27758;55.900;8.516;2023-04-15T02:00:25;7.90;99.90
42099;DHT22;27758;55.900;8.516;2023-04-15T02:02:51;8.00;99.90
42099;DHT22;27758;55.900;8.516;2023-04-15T02:05:17;7.90;99.90
42099;DHT22;27758;55.900;8.516;2023-04-15T02:07:43;7.90;99.90
42099;DHT22;27758;55.900;8.516;2023-04-15T02:10:09;7.90;99.90
42099;DHT22;27758;55.900;8.516;2023-04-15T02:12:37;7.90;99.90
42099;DHT22;27758;55.900;8.516;2023-04-15T02:15:04;8.00;99.90
42099;DHT22;27758;55.900;8.516;2023-04-15T02:17:29;7.90;99.90
42099;DHT22;27758;55.900;8.516;2023-04-15T02:19:59;8.00;99.90
42099;DHT22;27758;55.900;8.516;2023-04-15T02:22:25;7.90;99.90
42099;DHT22;27758;55.900;8.516;2023-04-15T02:24:51;7.90;99.90
42099;DHT22;27758;55.900;8.516;2023-04-15T02:27:17;7.90;99.90
42099;DHT22;27758;55.900;8.516;2023-04-15T02:29:46;7.90;99.90
42099;DHT22;27758;55.900;8.516;2023-04-15T02:32:12;8.00;99.90
42099;DHT22;27758;55.900;8.516;2023-04-15T02:34:39;7.90;99.90
42099;DHT22;27758;55.900;8.516;2023-04-15T02:37:11;7.90;99.90
42099;DHT22;27758;55.900;8.516;2023-04-15T02:39:37;7.90;99.90
42099;DHT22;27758;55.900;8.516;2023-04-15T02:42:03;7.90;99.90
42099;DHT22;27758;55.900;8.516;2023-04-15T02:44:31;8.00;99.90
42099;DHT22;27758;55.900;8.516;2023-04-15T02:46:57;7.90;99.90
42099;DHT22;27758;55.900;8.516;2023-04-15T02:49:24;7.90;99.90
42099;DHT22;27758;55.900;8.516;2023-04-15T02:51:50;7.90;99.90
42099;DHT22;27758;55.900;8.516;2023-04-15T02:54:17;8.00;99.90
42099;DHT22;27758;55.900;8.516;2023-04-15T02:56:43;8.00;99.90
42099;DHT22;27758;55.900;8.516;2023-04-15T02:59:08;8.00;99.90
42099;DHT22;27758;55.900;8.516;2023-04-15T03:01:34;8.00;99.90
42099;DHT22;27758;55.900;8.516;2023-04-15T03:04:00;8.00;99.90
42099;DHT22;27758;55.900;8.516;2023-04-15T03:06:26;8.10;99.90
42099;DHT22;27758;55.900;8.516;2023-04-15T03:08:51;8.00;99.90
42099;DHT22;27758;55.900;8.516;2023-04-15T03:11:18;8.00;99.90
42099;DHT22;27758;55.900;8.516;2023-04-15T03:13:43;8.00;99.90
42099;DHT22;27758;55.900;8.516;2023-04-15T03:16:10;8.00;99.90
42099;DHT22;27758;55.900;8.516;2023-04-15T03:18:35;8.10;99.90
42099;DHT22;27758;55.900;8.516;2023-04-15T03:21:01;8.00;99.90
42099;DHT22;27758;55.900;8.516;2023-04-15T03:23:27;8.00;99.90
42099;DHT22;27758;55.900;8.516;2023-04-15T03:25:53;8.00;99.90
42099;DHT22;27758;55.900;8.516;2023-04-15T03:28:23;8.00;99.90
42099;DHT22;27758;55.900;8.516;2023-04-15T03:30:48;8.00;99.90
42099;DHT22;27758;55.900;8.516;2023-04-15T03:33:14;7.90;99.90
42099;DHT22;27758;55.900;8.516;2023-04-15T03:35:39;7.90;99.90
42099;DHT22;27758;55.900;8.516;2023-04-15T03:38:05;7.90;99.90
42099;DHT22;27758;55.900;8.516;2023-04-15T03:40:31;7.90;99.90
42099;DHT22;27758;55.900;8.516;2023-04-15T03:42:57;7.80;99.90
42099;DHT22;27758;55.900;8.516;2023-04-15T03:45:22;7.90;99.90
42099;DHT22;27758;55.900;8.516;2023-04-15T03:47:48;7.80;99.90
42099;DHT22;27758;55.900;8.516;2023-04-15T03:50:14;7.80;99.90
42099;DHT22;27758;55.900;8.516;2023-04-15T03:52:40;7.80;99.90
42099;DHT22;27758;55.900;8.516;2023-04-15T03:55:06;7.80;99.90
42099;DHT22;27758;55.900;8.516;2023-04-15T03:57:33;7.90;99.90
42099;DHT22;27758;55.900;8.516;2023-04-15T04:00:03;7.90;99.90
42099;DHT22;27758;55.900;8.516;2023-04-15T04:02:29;7.80;99.90
42099;DHT22;27758;55.900;8.516;2023-04-15T04:04:55;7.80;99.90
42099;DHT22;27758;55.900;8.516;2023-04-15T04:07:22;7.80;99.90
42099;DHT22;27758;55.900;8.516;2023-04-15T04:09:49;7.80;99.90
42099;DHT22;27758;55.900;8.516;2023-04-15T04:12:14;7.80;99.90
42099;DHT22;27758;55.900;8.516;2023-04-15T04:14:40;7.80;99.90
42099;DHT22;27758;55.900;8.516;2023-04-15T04:17:06;7.80;99.90
42099;DHT22;27758;55.900;8.516;2023-04-15T04:19:32;7.90;99.90
42099;DHT22;27758;55.900;8.516;2023-04-15T04:21:57;7.90;99.90
42099;DHT22;27758;55.900;8.516;2023-04-15T04:24:23;7.80;99.90
42099;DHT22;27758;55.900;8.516;2023-04-15T04:26:49;7.80;99.90
42099;DHT22;27758;55.900;8.516;2023-04-15T04:29:15;7.80;99.90
42099;DHT22;27758;55.900;8.516;2023-04-15T04:31:41;7.80;99.90
42099;DHT22;27758;55.900;8.516;2023-04-15T04:34:07;7.90;99.90
42099;DHT22;27758;55.900;8.516;2023-04-15T04:36:32;7.90;99.90
42099;DHT22;27758;55.900;8.516;2023-04-15T04:38:58;7.80;99.90
42099;DHT22;27758;55.900;8.516;2023-04-15T04:41:24;7.80;99.90
42099;DHT22;27758;55.900;8.516;2023-04-15T04:43:49;7.80;99.90
42099;DHT22;27758;55.900;8.516;2023-04-15T04:46:15;7.90;99.90
42099;DHT22;27758;55.900;8.516;2023-04-15T04:48:43;7.90;99.90
42099;DHT22;27758;55.900;8.516;2023-04-15T04:51:09;7.80;99.90
42099;DHT22;27758;55.900;8.516;2023-04-15T04:53:35;7.90;99.90
42099;DHT22;27758;55.900;8.516;2023-04-15T04:56:02;7.90;99.90
42099;DHT22;27758;55.900;8.516;2023-04-15T04:58:28;7.90;99.90
42099;DHT22;27758;55.900;8.516;2023-04-15T05:00:54;8.00;99.90
42099;DHT22;27758;55.900;8.516;2023-04-15T05:03:20;7.90;99.90
42099;DHT22;27758;55.900;8.516;2023-04-15T05:05:46;7.90;99.90
42099;DHT22;27758;55.900;8.516;2023-04-15T05:08:14;8.00;99.90
42099;DHT22;27758;55.900;8.516;2023-04-15T05:10:40;8.00;99.90
42099;DHT22;27758;55.900;8.516;2023-04-15T05:13:06;8.00;99.90
42099;DHT22;27758;55.900;8.516;2023-04-15T05:15:32;8.00;99.90
42099;DHT22;27758;55.900;8.516;2023-04-15T05:17:59;8.10;99.90
42099;DHT22;27758;55.900;8.516;2023-04-15T05:20:25;8.10;99.90
42099;DHT22;27758;55.900;8.516;2023-04-15T05:22:50;8.10;99.90
42099;DHT22;27758;55.900;8.516;2023-04-15T05:25:16;8.10;99.90
42099;DHT22;27758;55.900;8.516;2023-04-15T05:27:42;8.10;99.90
42099;DHT22;27758;55.900;8.516;2023-04-15T05:30:08;8.10;99.90
42099;DHT22;27758;55.900;8.516;2023-04-15T05:32:34;8.20;99.90
42099;DHT22;27758;55.900;8.516;2023-04-15T05:35:00;8.20;99.90
42099;DHT22;27758;55.900;8.516;2023-04-15T05:37:28;8.10;99.90
42099;DHT22;27758;55.900;8.516;2023-04-15T05:39:53;8.20;99.90
42099;DHT22;27758;55.900;8.516;2023-04-15T05:42:19;8.20;99.90
42099;DHT22;27758;55.900;8.516;2023-04-15T05:44:45;8.20;99.90
42099;DHT22;27758;55.900;8.516;2023-04-15T05:47:11;8.20;99.90
42099;DHT22;27758;55.900;8.516;2023-04-15T05:49:36;8.20;99.90
42099;DHT22;27758;55.900;8.516;2023-04-15T05:52:02;8.20;99.90
42099;DHT22;27758;55.900;8.516;2023-04-15T05:54:28;8.30;99.90
42099;DHT22;27758;55.900;8.516;2023-04-15T05:56:54;8.20;99.90
42099;DHT22;27758;55.900;8.516;2023-04-15T05:59:22;8.30;99.90
42099;DHT22;27758;55.900;8.516;2023-04-15T06:01:47;8.30;99.90
42099;DHT22;27758;55.900;8.516;2023-04-15T06:04:13;8.30;99.90
42099;DHT22;27758;55.900;8.516;2023-04-15T06:06:39;8.30;99.90
42099;DHT22;27758;55.900;8.516;2023-04-15T06:09:05;8.30;99.90
42099;DHT22;27758;55.900;8.516;2023-04-15T06:11:33;8.30;99.90
42099;DHT22;27758;55.900;8.516;2023-04-15T06:13:59;8.40;99.90
42099;DHT22;27758;55.900;8.516;2023-04-15T06:16:25;8.40;99.90
42099;DHT22;27758;55.900;8.516;2023-04-15T06:18:50;8.50;99.90
42099;DHT22;27758;55.900;8.516;2023-04-15T06:21:16;8.50;99.90
42099;DHT22;27758;55.900;8.516;2023-04-15T06:23:42;8.50;99.90
42099;DHT22;27758;55.900;8.516;2023-04-15T06:26:07;8.40;99.90
42099;DHT22;27758;55.900;8.516;2023-04-15T06:28:33;8.40;99.90
42099;DHT22;27758;55.900;8.516;2023-04-15T06:30:59;8.50;99.90
42099;DHT22;27758;55.900;8.516;2023-04-15T06:33:26;8.50;99.90
42099;DHT22;27758;55.900;8.516;2023-04-15T06:35:52;8.50;99.90
42099;DHT22;27758;55.900;8.516;2023-04-15T06:38:17;8.50;99.90
42099;DHT22;27758;55.900;8.516;2023-04-15T06:40:43;8.60;99.90
42099;DHT22;27758;55.900;8.516;2023-04-15T06:43:09;8.60;99.90
42099;DHT22;27758;55.900;8.516;2023-04-15T06:45:35;8.70;99.90
42099;DHT22;27758;55.900;8.516;2023-04-15T06:48:00;8.70;99.90
42099;DHT22;27758;55.900;8.516;2023-04-15T06:50:26;8.80;99.90
42099;DHT22;27758;55.900;8.516;2023-04-15T06:52:55;8.70;99.90
42099;DHT22;27758;55.900;8.516;2023-04-15T06:55:21;8.70;99.90
42099;DHT22;27758;55.900;8.516;2023-04-15T06:57:48;8.60;99.90
42099;DHT22;27758;55.900;8.516;2023-04-15T07:00:14;8.70;99.90
42099;DHT22;27758;55.900;8.516;2023-04-15T07:02:41;8.70;99.90
42099;DHT22;27758;55.900;8.516;2023-04-15T07:05:06;8.70;99.90
42099;DHT22;27758;55.900;8.516;2023-04-15T07:07:32;8.80;99.90
42099;DHT22;27758;55.900;8.516;2023-04-15T07:09:58;8.90;99.90
42099;DHT22;27758;55.900;8.516;2023-04-15T07:12:26;8.90;99.90
42099;DHT22;27758;55.900;8.516;2023-04-15T07:14:52;8.90;99.90
42099;DHT22;27758;55.900;8.516;2023-04-15T07:17:18;9.00;99.90
42099;DHT22;27758;55.900;8.516;2023-04-15T07:19:43;9.10;99.90
42099;DHT22;27758;55.900;8.516;2023-04-15T07:22:09;9.00;99.90
42099;DHT22;27758;55.900;8.516;2023-04-15T07:24:35;9.10;99.90
42099;DHT22;27758;55.900;8.516;2023-04-15T07:27:00;9.20;99.90
42099;DHT22;27758;55.900;8.516;2023-04-15T07:29:26;9.20;99.90
42099;DHT22;27758;55.900;8.516;2023-04-15T07:31:52;9.20;99.90
42099;DHT22;27758;55.900;8.516;2023-04-15T07:34:19;9.10;99.90
42099;DHT22;27758;55.900;8.516;2023-04-15T07:36:45;9.20;99.90
42099;DHT22;27758;55.900;8.516;2023-04-15T07:39:14;9.20;99.90
42099;DHT22;27758;55.900;8.516;2023-04-15T07:41:41;9.30;99.90
42099;DHT22;27758;55.900;8.516;2023-04-15T07:44:07;9.40;99.90
42099;DHT22;27758;55.900;8.516;2023-04-15T07:46:32;9.40;99.90
42099;DHT22;27758;55.900;8.516;2023-04-15T07:48:58;9.60;99.90
42099;DHT22;27758;55.900;8.516;2023-04-15T07:51:24;9.60;99.90
42099;DHT22;27758;55.900;8.516;2023-04-15T07:53:50;9.70;99.90
42099;DHT22;27758;55.900;8.516;2023-04-15T07:56:16;9.70;99.90
42099;DHT22;27758;55.900;8.516;2023-04-15T07:58:42;9.70;99.90
42099;DHT22;27758;55.900;8.516;2023-04-15T08:01:08;9.70;99.90
42099;DHT22;27758;55.900;8.516;2023-04-15T08:03:33;9.80;99.90
42099;DHT22;27758;55.900;8.516;2023-04-15T08:05:59;9.80;99.90
42099;DHT22;27758;55.900;8.516;2023-04-15T08:08:25;9.90;99.90
42099;DHT22;27758;55.900;8.516;2023-04-15T08:10:51;9.90;99.90
42099;DHT22;27758;55.900;8.516;2023-04-15T08:13:17;10.00;99.90
42099;DHT22;27758;55.900;8.516;2023-04-15T08:15:43;10.00;99.90
42099;DHT22;27758;55.900;8.516;2023-04-15T08:18:09;10.00;99.90
42099;DHT22;27758;55.900;8.516;2023-04-15T08:20:35;10.10;99.90
42099;DHT22;27758;55.900;8.516;2023-04-15T08:23:02;10.10;99.90
42099;DHT22;27758;55.900;8.516;2023-04-15T08:25:30;10.20;99.90
42099;DHT22;27758;55.900;8.516;2023-04-15T08:27:56;10.20;99.90
42099;DHT22;27758;55.900;8.516;2023-04-15T08:30:22;10.30;99.90
42099;DHT22;27758;55.900;8.516;2023-04-15T08:32:49;10.40;99.90
42099;DHT22;27758;55.900;8.516;2023-04-15T08:35:15;10.40;99.90
42099;DHT22;27758;55.900;8.516;2023-04-15T08:37:41;10.40;99.90
42099;DHT22;27758;55.900;8.516;2023-04-15T08:40:07;10.50;99.90
42099;DHT22;27758;55.900;8.516;2023-04-15T08:42:40;10.40;99.90
42099;DHT22;27758;55.900;8.516;2023-04-15T08:45:09;10.40;99.90
42099;DHT22;27758;55.900;8.516;2023-04-15T08:47:38;10.40;99.90
42099;DHT22;27758;55.900;8.516;2023-04-15T08:50:08;10.40;99.90
42099;DHT22;27758;55.900;8.516;2023-04-15T08:52:35;10.40;99.90
42099;DHT22;27758;55.900;8.516;2023-04-15T08:55:01;10.50;99.90
42099;DHT22;27758;55.900;8.516;2023-04-15T08:57:28;10.60;99.90
42099;DHT22;27758;55.900;8.516;2023-04-15T08:59:57;10.60;99.90
42099;DHT22;27758;55.900;8.516;2023-04-15T09:02:23;10.60;99.90
42099;DHT22;27758;55.900;8.516;2023-04-15T09:04:50;10.50;99.90
42099;DHT22;27758;55.900;8.516;2023-04-15T09:07:16;10.60;99.90
42099;DHT22;27758;55.900;8.516;2023-04-15T09:09:42;10.60;99.90
42099;DHT22;27758;55.900;8.516;2023-04-15T09:12:08;10.50;99.90
42099;DHT22;27758;55.900;8.516;2023-04-15T09:14:35;10.50;99.90
42099;DHT22;27758;55.900;8.516;2023-04-15T09:17:04;10.40;99.90
42099;DHT22;27758;55.900;8.516;2023-04-15T09:19:30;10.50;99.90
42099;DHT22;27758;55.900;8.516;2023-04-15T09:21:57;10.50;99.90
42099;DHT22;27758;55.900;8.516;2023-04-15T09:24:23;10.60;99.90
42099;DHT22;27758;55.900;8.516;2023-04-15T09:26:53;10.60;99.90
42099;DHT22;27758;55.900;8.516;2023-04-15T09:29:23;10.60;99.90
42099;DHT22;27758;55.900;8.516;2023-04-15T09:31:51;10.70;99.90
42099;DHT22;27758;55.900;8.516;2023-04-15T09:34:17;10.80;99.90
42099;DHT22;27758;55.900;8.516;2023-04-15T09:39:12;10.80;99.90
42099;DHT22;27758;55.900;8.516;2023-04-15T09:41:38;10.90;99.90
42099;DHT22;27758;55.900;8.516;2023-04-15T09:44:05;10.90;99.90
42099;DHT22;27758;55.900;8.516;2023-04-15T09:46:41;10.80;99.90
42099;DHT22;27758;55.900;8.516;2023-04-15T09:49:08;10.90;99.90
42099;DHT22;27758;55.900;8.516;2023-04-15T09:51:35;10.90;99.90
42099;DHT22;27758;55.900;8.516;2023-04-15T09:54:01;10.90;99.90
42099;DHT22;27758;55.900;8.516;2023-04-15T09:56:36;10.90;99.90
42099;DHT22;27758;55.900;8.516;2023-04-15T09:59:09;10.80;99.90
42099;DHT22;27758;55.900;8.516;2023-04-15T10:01:35;10.70;99.90
42099;DHT22;27758;55.900;8.516;2023-04-15T10:04:02;10.70;99.90
42099;DHT22;27758;55.900;8.516;2023-04-15T10:06:29;10.90;99.90
42099;DHT22;27758;55.900;8.516;2023-04-15T10:08:56;10.90;99.90
42099;DHT22;27758;55.900;8.516;2023-04-15T10:11:23;10.90;99.90
42099;DHT22;27758;55.900;8.516;2023-04-15T10:13:50;10.80;99.90
42099;DHT22;27758;55.900;8.516;2023-04-15T10:16:18;10.80;99.90
42099;DHT22;27758;55.900;8.516;2023-04-15T10:18:46;10.80;99.90
42099;DHT22;27758;55.900;8.516;2023-04-15T10:21:13;10.90;99.90
42099;DHT22;27758;55.900;8.516;2023-04-15T10:23:41;10.90;99.90
42099;DHT22;27758;55.900;8.516;2023-04-15T10:26:07;10.80;99.90
42099;DHT22;27758;55.900;8.516;2023-04-15T10:28:34;10.80;99.90
42099;DHT22;27758;55.900;8.516;2023-04-15T10:31:00;10.70;99.90
42099;DHT22;27758;55.900;8.516;2023-04-15T10:33:27;10.70;99.90
42099;DHT22;27758;55.900;8.516;2023-04-15T10:35:55;10.70;99.90
42099;DHT22;27758;55.900;8.516;2023-04-15T10:38:33;10.70;99.90
42099;DHT22;27758;55.900;8.516;2023-04-15T10:41:21;10.80;99.90
42099;DHT22;27758;55.900;8.516;2023-04-15T10:43:51;10.90;99.90
42099;DHT22;27758;55.900;8.516;2023-04-15T10:46:33;10.90;99.90
42099;DHT22;27758;55.900;8.516;2023-04-15T10:49:14;10.90;99.90
42099;DHT22;27758;55.900;8.516;2023-04-15T10:51:46;10.90;99.90
42099;DHT22;27758;55.900;8.516;2023-04-15T10:56:44;11.00;99.90
42099;DHT22;27758;55.900;8.516;2023-04-15T10:59:10;11.10;99.90
42099;DHT22;27758;55.900;8.516;2023-04-15T11:01:53;11.20;99.90
42099;DHT22;27758;55.900;8.516;2023-04-15T11:04:56;11.00;99.90
42099;DHT22;27758;55.900;8.516;2023-04-15T11:07:53;11.10;99.90
42099;DHT22;27758;55.900;8.516;2023-04-15T11:12:52;11.20;99.90
42099;DHT22;27758;55.900;8.516;2023-04-15T11:17:58;11.40;99.90
42099;DHT22;27758;55.900;8.516;2023-04-15T11:20:24;11.40;99.90
42099;DHT22;27758;55.900;8.516;2023-04-15T11:22:51;11.50;99.90
42099;DHT22;27758;55.900;8.516;2023-04-15T11:25:23;11.60;99.90
42099;DHT22;27758;55.900;8.516;2023-04-15T11:27:51;11.70;99.90
42099;DHT22;27758;55.900;8.516;2023-04-15T11:30:23;11.90;99.90
42099;DHT22;27758;55.900;8.516;2023-04-15T11:32:50;12.10;99.90
42099;DHT22;27758;55.900;8.516;2023-04-15T11:35:16;12.40;99.90
42099;DHT22;27758;55.900;8.516;2023-04-15T11:37:45;12.40;99.90
42099;DHT22;27758;55.900;8.516;2023-04-15T11:40:11;12.50;99.90
42099;DHT22;27758;55.900;8.516;2023-04-15T11:42:38;12.50;99.90
42099;DHT22;27758;55.900;8.516;2023-04-15T11:45:07;12.40;99.90
42099;DHT22;27758;55.900;8.516;2023-04-15T11:47:37;12.60;99.90
42099;DHT22;27758;55.900;8.516;2023-04-15T11:50:19;12.70;99.90
42099;DHT22;27758;55.900;8.516;2023-04-15T11:52:55;13.10;99.90
42099;DHT22;27758;55.900;8.516;2023-04-15T11:55:22;13.20;99.90
42099;DHT22;27758;55.900;8.516;2023-04-15T11:57:49;13.10;99.90
42099;DHT22;27758;55.900;8.516;2023-04-15T12:00:15;12.90;99.90
42099;DHT22;27758;55.900;8.516;2023-04-15T12:02:42;13.00;99.90
42099;DHT22;27758;55.900;8.516;2023-04-15T12:05:08;13.10;99.90
42099;DHT22;27758;55.900;8.516;2023-04-15T12:07:57;13.30;99.90
42099;DHT22;27758;55.900;8.516;2023-04-15T12:10:23;13.40;99.90
42099;DHT22;27758;55.900;8.516;2023-04-15T12:12:51;13.40;99.90
42099;DHT22;27758;55.900;8.516;2023-04-15T12:15:21;13.30;99.90
42099;DHT22;27758;55.900;8.516;2023-04-15T12:17:48;13.40;99.90
42099;DHT22;27758;55.900;8.516;2023-04-15T12:20:20;13.20;99.90
42099;DHT22;27758;55.900;8.516;2023-04-15T12:22:49;13.30;99.90
42099;DHT22;27758;55.900;8.516;2023-04-15T12:25:15;13.40;99.90
42099;DHT22;27758;55.900;8.516;2023-04-15T12:27:40;13.40;99.90
42099;DHT22;27758;55.900;8.516;2023-04-15T12:30:07;13.40;99.90
42099;DHT22;27758;55.900;8.516;2023-04-15T12:32:36;13.60;99.90
42099;DHT22;27758;55.900;8.516;2023-04-15T12:35:01;13.50;99.90
42099;DHT22;27758;55.900;8.516;2023-04-15T12:37:27;13.60;99.90
42099;DHT22;27758;55.900;8.516;2023-04-15T12:39:53;13.70;99.90
42099;DHT22;27758;55.900;8.516;2023-04-15T12:42:19;13.80;99.90
42099;DHT22;27758;55.900;8.516;2023-04-15T12:44:45;14.00;99.90
42099;DHT22;27758;55.900;8.516;2023-04-15T12:47:11;14.10;99.90
42099;DHT22;27758;55.900;8.516;2023-04-15T12:49:37;14.20;99.90
42099;DHT22;27758;55.900;8.516;2023-04-15T12:52:04;14.20;99.90
42099;DHT22;27758;55.900;8.516;2023-04-15T12:54:30;14.00;99.90
42099;DHT22;27758;55.900;8.516;2023-04-15T12:56:57;14.00;99.90
42099;DHT22;27758;55.900;8.516;2023-04-15T12:59:23;14.00;99.90
42099;DHT22;27758;55.900;8.516;2023-04-15T13:01:55;14.00;99.90
42099;DHT22;27758;55.900;8.516;2023-04-15T13:04:21;14.10;99.90
42099;DHT22;27758;55.900;8.516;2023-04-15T13:06:47;14.10;99.90
42099;DHT22;27758;55.900;8.516;2023-04-15T13:09:12;14.10;99.90
42099;DHT22;27758;55.900;8.516;2023-04-15T13:11:38;14.10;99.90
42099;DHT22;27758;55.900;8.516;2023-04-15T13:14:05;14.00;99.90
42099;DHT22;27758;55.900;8.516;2023-04-15T13:16:32;14.10;99.90
42099;DHT22;27758;55.900;8.516;2023-04-15T13:19:01;14.30;99.90
42099;DHT22;27758;55.900;8.516;2023-04-15T13:21:28;14.40;99.90
42099;DHT22;27758;55.900;8.516;2023-04-15T13:23:54;14.60;99.90
42099;DHT22;27758;55.900;8.516;2023-04-15T13:26:20;14.70;99.90
42099;DHT22;27758;55.900;8.516;2023-04-15T13:28:45;14.90;99.90
42099;DHT22;27758;55.900;8.516;2023-04-15T13:31:11;15.10;99.90
42099;DHT22;27758;55.900;8.516;2023-04-15T13:33:37;15.00;99.90
42099;DHT22;27758;55.900;8.516;2023-04-15T13:36:03;14.70;99.90
42099;DHT22;27758;55.900;8.516;2023-04-15T13:38:29;14.80;99.90
42099;DHT22;27758;55.900;8.516;2023-04-15T13:40:54;14.80;99.90
42099;DHT22;27758;55.900;8.516;2023-04-15T13:43:20;14.70;99.90
42099;DHT22;27758;55.900;8.516;2023-04-15T13:45:47;14.90;99.90
42099;DHT22;27758;55.900;8.516;2023-04-15T13:48:12;15.30;99.90
42099;DHT22;27758;55.900;8.516;2023-04-15T13:50:38;15.60;99.90
42099;DHT22;27758;55.900;8.516;2023-04-15T13:53:05;15.60;99.90
42099;DHT22;27758;55.900;8.516;2023-04-15T13:55:31;15.40;99.90
42099;DHT22;27758;55.900;8.516;2023-04-15T13:57:59;15.00;99.90
42099;DHT22;27758;55.900;8.516;2023-04-15T14:00:25;14.90;99.90
42099;DHT22;27758;55.900;8.516;2023-04-15T14:02:50;14.80;99.90
42099;DHT22;27758;55.900;8.516;2023-04-15T14:05:16;15.00;99.90
42099;DHT22;27758;55.900;8.516;2023-04-15T14:07:42;15.20;99.90
42099;DHT22;27758;55.900;8.516;2023-04-15T14:10:08;15.20;99.90
42099;DHT22;27758;55.900;8.516;2023-04-15T14:12:33;15.00;99.90
42099;DHT22;27758;55.900;8.516;2023-04-15T14:14:59;15.10;99.90
42099;DHT22;27758;55.900;8.516;2023-04-15T14:17:25;15.40;99.90
42099;DHT22;27758;55.900;8.516;2023-04-15T14:19:51;15.60;99.90
42099;DHT22;27758;55.900;8.516;2023-04-15T14:22:17;15.40;99.90
42099;DHT22;27758;55.900;8.516;2023-04-15T14:24:43;15.40;99.90
42099;DHT22;27758;55.900;8.516;2023-04-15T14:27:09;15.50;99.90
42099;DHT22;27758;55.900;8.516;2023-04-15T14:29:36;15.30;99.90
42099;DHT22;27758;55.900;8.516;2023-04-15T14:32:02;15.60;99.90
42099;DHT22;27758;55.900;8.516;2023-04-15T14:34:28;15.90;99.90
42099;DHT22;27758;55.900;8.516;2023-04-15T14:36:54;15.90;99.90
42099;DHT22;27758;55.900;8.516;2023-04-15T14:39:21;15.50;99.90
42099;DHT22;27758;55.900;8.516;2023-04-15T14:41:47;15.00;99.90
42099;DHT22;27758;55.900;8.516;2023-04-15T14:44:13;14.80;99.90
42099;DHT22;27758;55.900;8.516;2023-04-15T14:46:39;14.70;99.90
42099;DHT22;27758;55.900;8.516;2023-04-15T14:49:07;14.50;99.90
42099;DHT22;27758;55.900;8.516;2023-04-15T14:51:33;14.30;99.90
42099;DHT22;27758;55.900;8.516;2023-04-15T14:53:58;14.30;99.90
42099;DHT22;27758;55.900;8.516;2023-04-15T14:56:25;14.30;99.90
42099;DHT22;27758;55.900;8.516;2023-04-15T14:58:50;14.30;99.90
42099;DHT22;27758;55.900;8.516;2023-04-15T15:01:17;14.30;99.90
42099;DHT22;27758;55.900;8.516;2023-04-15T15:03:46;14.30;99.90
42099;DHT22;27758;55.900;8.516;2023-04-15T15:06:11;14.20;99.90
42099;DHT22;27758;55.900;8.516;2023-04-15T15:08:37;14.10;99.90
42099;DHT22;27758;55.900;8.516;2023-04-15T15:11:03;14.10;99.90
42099;DHT22;27758;55.900;8.516;2023-04-15T15:13:29;14.20;99.90
42099;DHT22;27758;55.900;8.516;2023-04-15T15:15:56;14.00;99.90
42099;DHT22;27758;55.900;8.516;2023-04-15T15:18:21;14.10;99.90
42099;DHT22;27758;55.900;8.516;2023-04-15T15:20:50;14.10;99.90
42099;DHT22;27758;55.900;8.516;2023-04-15T15:23:16;14.20;99.90
42099;DHT22;27758;55.900;8.516;2023-04-15T15:25:42;14.50;99.90
42099;DHT22;27758;55.900;8.516;2023-04-15T15:28:08;14.70;99.90
42099;DHT22;27758;55.900;8.516;2023-04-15T15:30:33;14.80;99.90
42099;DHT22;27758;55.900;8.516;2023-04-15T15:32:59;15.00;99.90
42099;DHT22;27758;55.900;8.516;2023-04-15T15:35:25;15.20;99.90
42099;DHT22;27758;55.900;8.516;2023-04-15T15:37:51;15.20;99.90
42099;DHT22;27758;55.900;8.516;2023-04-15T15:40:17;15.10;99.90
42099;DHT22;27758;55.900;8.516;2023-04-15T15:42:43;15.10;99.90
42099;DHT22;27758;55.900;8.516;2023-04-15T15:45:09;15.10;99.90
42099;DHT22;27758;55.900;8.516;2023-04-15T15:47:34;15.00;99.90
42099;DHT22;27758;55.900;8.516;2023-04-15T15:50:00;14.80;99.90
42099;DHT22;27758;55.900;8.516;2023-04-15T15:52:26;14.70;99.90
42099;DHT22;27758;55.900;8.516;2023-04-15T15:54:52;14.60;99.90
42099;DHT22;27758;55.900;8.516;2023-04-15T15:57:18;14.60;99.90
42099;DHT22;27758;55.900;8.516;2023-04-15T15:59:43;14.50;99.90
42099;DHT22;27758;55.900;8.516;2023-04-15T16:02:10;14.50;99.90